sensor_id;sensor_type;location;lat;lon;timestamp;P1;durP1;ratioP1;P2;durP2;ratioP2
31482;SDS011;18103;52.246;8.052;2023-01-08T00:02:25;2.73;;;1.60;;
31482;SDS011;18103;52.246;8.052;2023-01-08T00:04:50;2.57;;;1.80;;
31482;SDS011;18103;52.246;8.052;2023-01-08T00:07:15;2.93;;;1.53;;
31482;SDS011;18103;52.246;8.052;2023-01-08T00:09:41;1.77;;;1.43;;
31482;SDS011;18103;52.246;8.052;2023-01-08T00:12:07;3.10;;;1.73;;
31482;SDS011;18103;52.246;8.052;2023-01-08T00:14:33;5.33;;;2.23;;
31482;SDS011;18103;52.246;8.052;2023-01-08T00:16:58;6.70;;;1.60;;
31482;SDS011;18103;52.246;8.052;2023-01-08T00:19:24;2.90;;;1.33;;
31482;SDS011;18103;52.246;8.052;2023-01-08T00:21:49;2.87;;;1.40;;
31482;SDS011;18103;52.246;8.052;2023-01-08T00:24:16;3.37;;;1.77;;
31482;SDS011;18103;52.246;8.052;2023-01-08T00:26:41;2.70;;;1.60;;
31482;SDS011;18103;52.246;8.052;2023-01-08T00:29:06;2.60;;;1.67;;
31482;SDS011;18103;52.246;8.052;2023-01-08T00:31:32;4.27;;;1.70;;
31482;SDS011;18103;52.246;8.052;2023-01-08T00:33:57;3.63;;;1.80;;
31482;SDS011;18103;52.246;8.052;2023-01-08T00:36:23;4.40;;;1.93;;
31482;SDS011;18103;52.246;8.052;2023-01-08T00:38:48;2.53;;;1.40;;
31482;SDS011;18103;52.246;8.052;2023-01-08T00:41:14;2.00;;;1.60;;
31482;SDS011;18103;52.246;8.052;2023-01-08T00:43:40;2.27;;;1.70;;
31482;SDS011;18103;52.246;8.052;2023-01-08T00:46:06;2.57;;;1.43;;
31482;SDS011;18103;52.246;8.052;2023-01-08T00:48:31;3.43;;;1.60;;
31482;SDS011;18103;52.246;8.052;2023-01-08T00:51:02;2.47;;;1.50;;
31482;SDS011;18103;52.246;8.052;2023-01-08T00:53:29;2.63;;;1.40;;
31482;SDS011;18103;52.246;8.052;2023-01-08T00:55:59;2.80;;;1.50;;
31482;SDS011;18103;52.246;8.052;2023-01-08T00:58:29;3.80;;;1.70;;
31482;SDS011;18103;52.246;8.052;2023-01-08T01:00:55;5.30;;;1.60;;
31482;SDS011;18103;52.246;8.052;2023-01-08T01:03:20;2.83;;;1.60;;
31482;SDS011;18103;52.246;8.052;2023-01-08T01:05:46;4.33;;;1.80;;
31482;SDS011;18103;52.246;8.052;2023-01-08T01:08:11;4.17;;;1.63;;
31482;SDS011;18103;52.246;8.052;2023-01-08T01:10:40;3.83;;;1.60;;
31482;SDS011;18103;52.246;8.052;2023-01-08T01:13:05;1.93;;;1.63;;
31482;SDS011;18103;52.246;8.052;2023-01-08T01:15:31;3.53;;;2.17;;
31482;SDS011;18103;52.246;8.052;2023-01-08T01:17:56;2.10;;;1.80;;
31482;SDS011;18103;52.246;8.052;2023-01-08T01:20:22;3.77;;;1.90;;
31482;SDS011;18103;52.246;8.052;2023-01-08T01:22:48;4.67;;;1.70;;
31482;SDS011;18103;52.246;8.052;2023-01-08T01:25:13;3.07;;;1.80;;
31482;SDS011;18103;52.246;8.052;2023-01-08T01:27:39;1.73;;;1.13;;
31482;SDS011;18103;52.246;8.052;2023-01-08T01:30:04;3.27;;;1.53;;
31482;SDS011;18103;52.246;8.052;2023-01-08T01:32:30;3.57;;;1.83;;
31482;SDS011;18103;52.246;8.052;2023-01-08T01:34:56;2.57;;;1.80;;
31482;SDS011;18103;52.246;8.052;2023-01-08T01:37:21;3.70;;;1.47;;
31482;SDS011;18103;52.246;8.052;2023-01-08T01:39:46;2.00;;;1.53;;
31482;SDS011;18103;52.246;8.052;2023-01-08T01:42:12;2.63;;;1.80;;
31482;SDS011;18103;52.246;8.052;2023-01-08T01:44:57;3.30;;;1.30;;
31482;SDS011;18103;52.246;8.052;2023-01-08T01:50:04;1.70;;;1.37;;
31482;SDS011;18103;52.246;8.052;2023-01-08T01:52:37;3.27;;;2.13;;
31482;SDS011;18103;52.246;8.052;2023-01-08T01:55:06;2.13;;;1.50;;
31482;SDS011;18103;52.246;8.052;2023-01-08T01:57:33;2.13;;;1.40;;
31482;SDS011;18103;52.246;8.052;2023-01-08T02:00:05;3.30;;;1.60;;
31482;SDS011;18103;52.246;8.052;2023-01-08T02:02:32;4.30;;;1.97;;
31482;SDS011;18103;52.246;8.052;2023-01-08T02:04:58;2.30;;;1.77;;
31482;SDS011;18103;52.246;8.052;2023-01-08T02:07:31;2.53;;;1.43;;
31482;SDS011;18103;52.246;8.052;2023-01-08T02:12:48;2.07;;;1.57;;
31482;SDS011;18103;52.246;8.052;2023-01-08T02:15:23;3.07;;;1.50;;
31482;SDS011;18103;52.246;8.052;2023-01-08T02:26:31;3.67;;;1.60;;
31482;SDS011;18103;52.246;8.052;2023-01-08T02:29:00;1.80;;;1.60;;
31482;SDS011;18103;52.246;8.052;2023-01-08T02:31:31;2.03;;;1.47;;
31482;SDS011;18103;52.246;8.052;2023-01-08T02:33:59;2.17;;;1.13;;
31482;SDS011;18103;52.246;8.052;2023-01-08T02:36:26;6.60;;;1.70;;
31482;SDS011;18103;52.246;8.052;2023-01-08T02:39:00;3.13;;;1.37;;
31482;SDS011;18103;52.246;8.052;2023-01-08T02:47:23;2.03;;;1.57;;
31482;SDS011;18103;52.246;8.052;2023-01-08T02:49:53;4.13;;;1.27;;
31482;SDS011;18103;52.246;8.052;2023-01-08T02:52:30;1.10;;;0.93;;
31482;SDS011;18103;52.246;8.052;2023-01-08T02:54:59;2.67;;;1.47;;
31482;SDS011;18103;52.246;8.052;2023-01-08T02:57:27;5.27;;;1.70;;
31482;SDS011;18103;52.246;8.052;2023-01-08T02:59:56;5.00;;;1.40;;
31482;SDS011;18103;52.246;8.052;2023-01-08T03:02:22;2.10;;;1.27;;
31482;SDS011;18103;52.246;8.052;2023-01-08T03:04:51;1.70;;;1.17;;
31482;SDS011;18103;52.246;8.052;2023-01-08T03:07:18;4.40;;;1.50;;
31482;SDS011;18103;52.246;8.052;2023-01-08T03:09:45;2.23;;;1.40;;
31482;SDS011;18103;52.246;8.052;2023-01-08T03:14:45;2.27;;;1.10;;
31482;SDS011;18103;52.246;8.052;2023-01-08T03:17:20;2.77;;;1.27;;
31482;SDS011;18103;52.246;8.052;2023-01-08T03:19:53;1.90;;;1.03;;
31482;SDS011;18103;52.246;8.052;2023-01-08T03:22:21;3.37;;;1.43;;
31482;SDS011;18103;52.246;8.052;2023-01-08T03:24:48;4.13;;;1.40;;
31482;SDS011;18103;52.246;8.052;2023-01-08T03:27:18;3.40;;;1.10;;
31482;SDS011;18103;52.246;8.052;2023-01-08T03:29:49;1.77;;;1.40;;
31482;SDS011;18103;52.246;8.052;2023-01-08T03:32:17;3.23;;;1.27;;
31482;SDS011;18103;52.246;8.052;2023-01-08T03:34:46;3.50;;;1.20;;
31482;SDS011;18103;52.246;8.052;2023-01-08T03:37:15;2.17;;;1.33;;
31482;SDS011;18103;52.246;8.052;2023-01-08T03:39:51;2.70;;;1.20;;
31482;SDS011;18103;52.246;8.052;2023-01-08T03:42:23;2.17;;;1.13;;
31482;SDS011;18103;52.246;8.052;2023-01-08T03:44:49;3.23;;;1.40;;
31482;SDS011;18103;52.246;8.052;2023-01-08T03:47:15;1.70;;;1.30;;
31482;SDS011;18103;52.246;8.052;2023-01-08T03:49:43;2.73;;;1.23;;
31482;SDS011;18103;52.246;8.052;2023-01-08T03:52:31;2.40;;;1.17;;
31482;SDS011;18103;52.246;8.052;2023-01-08T03:54:57;1.40;;;1.17;;
31482;SDS011;18103;52.246;8.052;2023-01-08T03:57:23;2.63;;;1.03;;
31482;SDS011;18103;52.246;8.052;2023-01-08T03:59:48;2.77;;;1.13;;
31482;SDS011;18103;52.246;8.052;2023-01-08T04:02:14;1.50;;;1.10;;
31482;SDS011;18103;52.246;8.052;2023-01-08T04:04:39;1.80;;;1.07;;
31482;SDS011;18103;52.246;8.052;2023-01-08T04:07:05;5.13;;;1.40;;
31482;SDS011;18103;52.246;8.052;2023-01-08T04:09:31;2.10;;;1.30;;
31482;SDS011;18103;52.246;8.052;2023-01-08T04:11:57;3.07;;;1.33;;
31482;SDS011;18103;52.246;8.052;2023-01-08T04:14:22;1.23;;;1.00;;
31482;SDS011;18103;52.246;8.052;2023-01-08T04:16:48;4.97;;;1.40;;
31482;SDS011;18103;52.246;8.052;2023-01-08T04:19:13;2.60;;;1.50;;
31482;SDS011;18103;52.246;8.052;2023-01-08T04:21:39;4.53;;;1.30;;
31482;SDS011;18103;52.246;8.052;2023-01-08T04:24:05;4.13;;;1.03;;
31482;SDS011;18103;52.246;8.052;2023-01-08T04:26:31;1.73;;;0.90;;
31482;SDS011;18103;52.246;8.052;2023-01-08T04:28:56;2.17;;;1.23;;
31482;SDS011;18103;52.246;8.052;2023-01-08T04:31:21;3.07;;;1.53;;
31482;SDS011;18103;52.246;8.052;2023-01-08T04:33:47;1.23;;;1.07;;
31482;SDS011;18103;52.246;8.052;2023-01-08T04:36:13;2.20;;;1.30;;
31482;SDS011;18103;52.246;8.052;2023-01-08T04:38:38;1.87;;;1.30;;
31482;SDS011;18103;52.246;8.052;2023-01-08T04:41:04;1.30;;;1.00;;
31482;SDS011;18103;52.246;8.052;2023-01-08T04:43:30;1.67;;;1.23;;
31482;SDS011;18103;52.246;8.052;2023-01-08T04:45:56;2.10;;;1.23;;
31482;SDS011;18103;52.246;8.052;2023-01-08T04:48:26;2.97;;;1.40;;
31482;SDS011;18103;52.246;8.052;2023-01-08T04:50:52;1.87;;;1.10;;
31482;SDS011;18103;52.246;8.052;2023-01-08T04:53:18;3.63;;;1.03;;
31482;SDS011;18103;52.246;8.052;2023-01-08T04:55:44;4.27;;;1.07;;
31482;SDS011;18103;52.246;8.052;2023-01-08T04:58:09;1.10;;;0.93;;
31482;SDS011;18103;52.246;8.052;2023-01-08T05:00:34;3.53;;;1.30;;
31482;SDS011;18103;52.246;8.052;2023-01-08T05:03:00;2.47;;;1.20;;
31482;SDS011;18103;52.246;8.052;2023-01-08T05:05:26;3.13;;;1.37;;
31482;SDS011;18103;52.246;8.052;2023-01-08T05:07:51;3.03;;;1.33;;
31482;SDS011;18103;52.246;8.052;2023-01-08T05:10:17;4.10;;;1.13;;
31482;SDS011;18103;52.246;8.052;2023-01-08T05:12:42;2.63;;;1.43;;
31482;SDS011;18103;52.246;8.052;2023-01-08T05:15:08;2.70;;;1.37;;
31482;SDS011;18103;52.246;8.052;2023-01-08T05:17:34;1.63;;;1.13;;
31482;SDS011;18103;52.246;8.052;2023-01-08T05:19:59;2.30;;;1.20;;
31482;SDS011;18103;52.246;8.052;2023-01-08T05:22:24;1.70;;;1.10;;
31482;SDS011;18103;52.246;8.052;2023-01-08T05:24:50;1.50;;;0.97;;
31482;SDS011;18103;52.246;8.052;2023-01-08T05:27:15;5.63;;;1.30;;
31482;SDS011;18103;52.246;8.052;2023-01-08T05:29:41;3.53;;;1.57;;
31482;SDS011;18103;52.246;8.052;2023-01-08T05:32:13;3.03;;;1.40;;
31482;SDS011;18103;52.246;8.052;2023-01-08T05:34:40;2.40;;;1.53;;
31482;SDS011;18103;52.246;8.052;2023-01-08T05:37:06;2.83;;;1.33;;
31482;SDS011;18103;52.246;8.052;2023-01-08T05:39:31;2.30;;;1.30;;
31482;SDS011;18103;52.246;8.052;2023-01-08T05:41:57;3.60;;;1.20;;
31482;SDS011;18103;52.246;8.052;2023-01-08T05:44:22;4.00;;;1.30;;
31482;SDS011;18103;52.246;8.052;2023-01-08T05:46:47;4.77;;;1.37;;
31482;SDS011;18103;52.246;8.052;2023-01-08T05:49:13;1.60;;;1.13;;
31482;SDS011;18103;52.246;8.052;2023-01-08T05:51:38;1.83;;;0.80;;
31482;SDS011;18103;52.246;8.052;2023-01-08T05:54:04;3.47;;;1.23;;
31482;SDS011;18103;52.246;8.052;2023-01-08T05:56:29;2.57;;;1.20;;
31482;SDS011;18103;52.246;8.052;2023-01-08T05:58:54;3.33;;;1.90;;
31482;SDS011;18103;52.246;8.052;2023-01-08T06:01:20;3.93;;;1.83;;
31482;SDS011;18103;52.246;8.052;2023-01-08T06:03:46;7.40;;;1.70;;
31482;SDS011;18103;52.246;8.052;2023-01-08T06:06:11;2.83;;;1.50;;
31482;SDS011;18103;52.246;8.052;2023-01-08T06:08:36;2.23;;;1.20;;
31482;SDS011;18103;52.246;8.052;2023-01-08T06:11:03;5.17;;;1.53;;
31482;SDS011;18103;52.246;8.052;2023-01-08T06:13:31;3.33;;;0.90;;
31482;SDS011;18103;52.246;8.052;2023-01-08T06:15:57;2.10;;;1.00;;
31482;SDS011;18103;52.246;8.052;2023-01-08T06:18:24;6.63;;;1.13;;
31482;SDS011;18103;52.246;8.052;2023-01-08T06:20:50;1.87;;;1.00;;
31482;SDS011;18103;52.246;8.052;2023-01-08T06:23:16;7.17;;;1.40;;
31482;SDS011;18103;52.246;8.052;2023-01-08T06:25:41;2.30;;;0.97;;
31482;SDS011;18103;52.246;8.052;2023-01-08T06:28:06;2.83;;;1.47;;
31482;SDS011;18103;52.246;8.052;2023-01-08T06:30:32;3.23;;;1.47;;
31482;SDS011;18103;52.246;8.052;2023-01-08T06:32:58;5.53;;;1.50;;
31482;SDS011;18103;52.246;8.052;2023-01-08T06:35:25;5.07;;;1.83;;
31482;SDS011;18103;52.246;8.052;2023-01-08T06:37:51;4.20;;;1.90;;
31482;SDS011;18103;52.246;8.052;2023-01-08T06:40:18;1.73;;;1.20;;
31482;SDS011;18103;52.246;8.052;2023-01-08T06:42:44;2.43;;;1.20;;
31482;SDS011;18103;52.246;8.052;2023-01-08T06:45:10;6.83;;;1.10;;
31482;SDS011;18103;52.246;8.052;2023-01-08T06:47:36;2.10;;;0.87;;
31482;SDS011;18103;52.246;8.052;2023-01-08T06:50:02;1.37;;;0.90;;
31482;SDS011;18103;52.246;8.052;2023-01-08T06:52:28;1.83;;;1.13;;
31482;SDS011;18103;52.246;8.052;2023-01-08T06:54:54;1.53;;;0.93;;
31482;SDS011;18103;52.246;8.052;2023-01-08T06:57:19;0.80;;;0.63;;
31482;SDS011;18103;52.246;8.052;2023-01-08T06:59:44;2.47;;;0.80;;
31482;SDS011;18103;52.246;8.052;2023-01-08T07:02:13;2.50;;;0.83;;
31482;SDS011;18103;52.246;8.052;2023-01-08T07:04:40;1.60;;;0.63;;
31482;SDS011;18103;52.246;8.052;2023-01-08T07:07:05;3.40;;;0.80;;
31482;SDS011;18103;52.246;8.052;2023-01-08T07:09:32;1.47;;;1.07;;
31482;SDS011;18103;52.246;8.052;2023-01-08T07:11:58;0.57;;;0.53;;
31482;SDS011;18103;52.246;8.052;2023-01-08T07:14:23;1.40;;;0.77;;
31482;SDS011;18103;52.246;8.052;2023-01-08T07:16:49;1.40;;;1.10;;
31482;SDS011;18103;52.246;8.052;2023-01-08T07:19:14;1.47;;;0.70;;
31482;SDS011;18103;52.246;8.052;2023-01-08T07:21:40;1.33;;;0.80;;
31482;SDS011;18103;52.246;8.052;2023-01-08T07:24:05;2.30;;;0.80;;
31482;SDS011;18103;52.246;8.052;2023-01-08T07:26:31;0.93;;;0.70;;
31482;SDS011;18103;52.246;8.052;2023-01-08T07:28:57;2.17;;;1.23;;
31482;SDS011;18103;52.246;8.052;2023-01-08T07:31:24;2.80;;;1.00;;
31482;SDS011;18103;52.246;8.052;2023-01-08T07:33:49;0.57;;;0.57;;
31482;SDS011;18103;52.246;8.052;2023-01-08T07:36:14;0.70;;;0.70;;
31482;SDS011;18103;52.246;8.052;2023-01-08T07:38:41;1.30;;;0.90;;
31482;SDS011;18103;52.246;8.052;2023-01-08T07:41:06;2.03;;;0.80;;
31482;SDS011;18103;52.246;8.052;2023-01-08T07:43:32;1.33;;;0.83;;
31482;SDS011;18103;52.246;8.052;2023-01-08T07:46:00;0.90;;;0.70;;
31482;SDS011;18103;52.246;8.052;2023-01-08T07:48:27;1.17;;;1.07;;
31482;SDS011;18103;52.246;8.052;2023-01-08T07:50:52;2.40;;;1.10;;
31482;SDS011;18103;52.246;8.052;2023-01-08T07:53:18;0.47;;;0.47;;
31482;SDS011;18103;52.246;8.052;2023-01-08T07:55:44;1.13;;;0.90;;
31482;SDS011;18103;52.246;8.052;2023-01-08T07:58:10;1.60;;;0.87;;
31482;SDS011;18103;52.246;8.052;2023-01-08T08:00:36;1.37;;;0.80;;
31482;SDS011;18103;52.246;8.052;2023-01-08T08:03:03;1.47;;;0.80;;
31482;SDS011;18103;52.246;8.052;2023-01-08T08:05:33;1.33;;;0.80;;
31482;SDS011;18103;52.246;8.052;2023-01-08T08:07:59;1.30;;;0.80;;
31482;SDS011;18103;52.246;8.052;2023-01-08T08:10:25;1.63;;;0.60;;
31482;SDS011;18103;52.246;8.052;2023-01-08T08:12:50;0.43;;;0.43;;
31482;SDS011;18103;52.246;8.052;2023-01-08T08:15:16;0.80;;;0.57;;
31482;SDS011;18103;52.246;8.052;2023-01-08T08:17:45;1.57;;;0.80;;
31482;SDS011;18103;52.246;8.052;2023-01-08T08:20:11;0.97;;;0.70;;
31482;SDS011;18103;52.246;8.052;2023-01-08T08:22:37;0.47;;;0.47;;
31482;SDS011;18103;52.246;8.052;2023-01-08T08:25:02;1.77;;;0.53;;
31482;SDS011;18103;52.246;8.052;2023-01-08T08:27:28;0.70;;;0.70;;
31482;SDS011;18103;52.246;8.052;2023-01-08T08:29:53;2.10;;;0.80;;
31482;SDS011;18103;52.246;8.052;2023-01-08T08:32:18;2.27;;;0.60;;
31482;SDS011;18103;52.246;8.052;2023-01-08T08:34:44;2.80;;;0.70;;
31482;SDS011;18103;52.246;8.052;2023-01-08T08:37:09;1.17;;;0.73;;
31482;SDS011;18103;52.246;8.052;2023-01-08T08:39:35;1.20;;;0.90;;
31482;SDS011;18103;52.246;8.052;2023-01-08T08:42:00;0.87;;;0.60;;
31482;SDS011;18103;52.246;8.052;2023-01-08T08:44:25;4.70;;;0.60;;
31482;SDS011;18103;52.246;8.052;2023-01-08T08:46:51;1.83;;;0.70;;
31482;SDS011;18103;52.246;8.052;2023-01-08T08:49:16;0.83;;;0.60;;
31482;SDS011;18103;52.246;8.052;2023-01-08T08:51:42;0.83;;;0.50;;
31482;SDS011;18103;52.246;8.052;2023-01-08T08:54:08;1.87;;;0.70;;
31482;SDS011;18103;52.246;8.052;2023-01-08T08:56:34;1.50;;;0.70;;
31482;SDS011;18103;52.246;8.052;2023-01-08T08:59:00;2.80;;;0.57;;
31482;SDS011;18103;52.246;8.052;2023-01-08T09:01:25;0.83;;;0.63;;
31482;SDS011;18103;52.246;8.052;2023-01-08T09:03:50;0.80;;;0.30;;
31482;SDS011;18103;52.246;8.052;2023-01-08T09:06:16;2.13;;;0.30;;
31482;SDS011;18103;52.246;8.052;2023-01-08T09:08:41;1.30;;;0.40;;
31482;SDS011;18103;52.246;8.052;2023-01-08T09:11:07;0.83;;;0.50;;
31482;SDS011;18103;52.246;8.052;2023-01-08T09:13:32;1.13;;;0.50;;
31482;SDS011;18103;52.246;8.052;2023-01-08T09:15:58;1.23;;;0.50;;
31482;SDS011;18103;52.246;8.052;2023-01-08T09:18:24;0.40;;;0.40;;
31482;SDS011;18103;52.246;8.052;2023-01-08T09:20:49;0.63;;;0.50;;
31482;SDS011;18103;52.246;8.052;2023-01-08T09:23:15;4.50;;;0.60;;
31482;SDS011;18103;52.246;8.052;2023-01-08T09:25:40;0.57;;;0.50;;
31482;SDS011;18103;52.246;8.052;2023-01-08T09:28:06;0.20;;;0.20;;
31482;SDS011;18103;52.246;8.052;2023-01-08T09:30:36;1.87;;;0.63;;
31482;SDS011;18103;52.246;8.052;2023-01-08T09:33:02;4.13;;;0.47;;
31482;SDS011;18103;52.246;8.052;2023-01-08T09:35:28;1.10;;;0.53;;
31482;SDS011;18103;52.246;8.052;2023-01-08T09:37:54;0.87;;;0.37;;
31482;SDS011;18103;52.246;8.052;2023-01-08T09:40:20;1.70;;;0.70;;
31482;SDS011;18103;52.246;8.052;2023-01-08T09:42:53;1.30;;;0.50;;
31482;SDS011;18103;52.246;8.052;2023-01-08T09:45:24;3.27;;;0.70;;
31482;SDS011;18103;52.246;8.052;2023-01-08T09:47:59;1.43;;;0.80;;
31482;SDS011;18103;52.246;8.052;2023-01-08T09:50:29;2.20;;;1.17;;
31482;SDS011;18103;52.246;8.052;2023-01-08T09:52:56;3.30;;;1.43;;
31482;SDS011;18103;52.246;8.052;2023-01-08T09:55:23;2.33;;;1.13;;
31482;SDS011;18103;52.246;8.052;2023-01-08T09:57:49;1.00;;;0.70;;
31482;SDS011;18103;52.246;8.052;2023-01-08T10:00:15;3.10;;;1.33;;
31482;SDS011;18103;52.246;8.052;2023-01-08T10:02:45;3.87;;;1.17;;
31482;SDS011;18103;52.246;8.052;2023-01-08T10:05:12;2.10;;;0.93;;
31482;SDS011;18103;52.246;8.052;2023-01-08T10:07:39;1.53;;;0.80;;
31482;SDS011;18103;52.246;8.052;2023-01-08T10:10:05;2.30;;;1.00;;
31482;SDS011;18103;52.246;8.052;2023-01-08T10:12:39;1.87;;;0.83;;
31482;SDS011;18103;52.246;8.052;2023-01-08T10:15:05;2.80;;;0.90;;
31482;SDS011;18103;52.246;8.052;2023-01-08T10:17:38;3.70;;;0.80;;
31482;SDS011;18103;52.246;8.052;2023-01-08T10:22:38;1.77;;;0.80;;
31482;SDS011;18103;52.246;8.052;2023-01-08T10:25:05;2.90;;;0.80;;
31482;SDS011;18103;52.246;8.052;2023-01-08T10:30:20;1.20;;;0.60;;
31482;SDS011;18103;52.246;8.052;2023-01-08T10:32:49;6.73;;;0.93;;
31482;SDS011;18103;52.246;8.052;2023-01-08T10:35:27;2.23;;;1.00;;
31482;SDS011;18103;52.246;8.052;2023-01-08T10:37:58;2.77;;;0.70;;
31482;SDS011;18103;52.246;8.052;2023-01-08T10:43:35;2.43;;;0.57;;
31482;SDS011;18103;52.246;8.052;2023-01-08T10:46:14;6.10;;;0.70;;
31482;SDS011;18103;52.246;8.052;2023-01-08T10:48:46;3.63;;;0.83;;
31482;SDS011;18103;52.246;8.052;2023-01-08T10:53:44;4.63;;;1.07;;
31482;SDS011;18103;52.246;8.052;2023-01-08T10:56:21;5.83;;;0.70;;
31482;SDS011;18103;52.246;8.052;2023-01-08T10:58:48;8.40;;;1.00;;
31482;SDS011;18103;52.246;8.052;2023-01-08T11:01:16;5.73;;;1.07;;
31482;SDS011;18103;52.246;8.052;2023-01-08T11:03:50;3.10;;;0.87;;
31482;SDS011;18103;52.246;8.052;2023-01-08T11:06:23;3.00;;;1.00;;
31482;SDS011;18103;52.246;8.052;2023-01-08T11:08:55;7.07;;;1.10;;
31482;SDS011;18103;52.246;8.052;2023-01-08T11:11:31;8.20;;;1.07;;
31482;SDS011;18103;52.246;8.052;2023-01-08T11:14:00;2.27;;;0.60;;
31482;SDS011;18103;52.246;8.052;2023-01-08T11:16:38;7.80;;;1.23;;
31482;SDS011;18103;52.246;8.052;2023-01-08T11:19:13;8.10;;;1.33;;
31482;SDS011;18103;52.246;8.052;2023-01-08T11:21:54;6.63;;;1.00;;
31482;SDS011;18103;52.246;8.052;2023-01-08T11:24:21;13.07;;;1.47;;
31482;SDS011;18103;52.246;8.052;2023-01-08T11:29:46;3.30;;;0.67;;
31482;SDS011;18103;52.246;8.052;2023-01-08T11:34:56;9.00;;;1.10;;
31482;SDS011;18103;52.246;8.052;2023-01-08T11:37:33;10.57;;;1.20;;
31482;SDS011;18103;52.246;8.052;2023-01-08T11:40:09;7.27;;;1.00;;
31482;SDS011;18103;52.246;8.052;2023-01-08T11:48:26;7.70;;;0.93;;
31482;SDS011;18103;52.246;8.052;2023-01-08T11:59:32;5.73;;;0.93;;
31482;SDS011;18103;52.246;8.052;2023-01-08T12:02:31;6.80;;;0.90;;
31482;SDS011;18103;52.246;8.052;2023-01-08T12:08:01;4.47;;;0.67;;
31482;SDS011;18103;52.246;8.052;2023-01-08T12:10:41;6.37;;;1.27;;
31482;SDS011;18103;52.246;8.052;2023-01-08T12:16:23;4.37;;;0.70;;
31482;SDS011;18103;52.246;8.052;2023-01-08T12:19:16;4.73;;;0.90;;
31482;SDS011;18103;52.246;8.052;2023-01-08T12:27:33;7.90;;;1.77;;
31482;SDS011;18103;52.246;8.052;2023-01-08T12:33:03;12.80;;;1.67;;
31482;SDS011;18103;52.246;8.052;2023-01-08T12:35:37;4.03;;;1.00;;
31482;SDS011;18103;52.246;8.052;2023-01-08T12:38:10;4.20;;;0.97;;
31482;SDS011;18103;52.246;8.052;2023-01-08T12:40:50;5.63;;;1.20;;
31482;SDS011;18103;52.246;8.052;2023-01-08T12:43:29;4.27;;;0.93;;
31482;SDS011;18103;52.246;8.052;2023-01-08T12:45:59;1.20;;;0.60;;
31482;SDS011;18103;52.246;8.052;2023-01-08T12:48:27;8.20;;;0.87;;
31482;SDS011;18103;52.246;8.052;2023-01-08T12:50:56;3.33;;;0.90;;
31482;SDS011;18103;52.246;8.052;2023-01-08T12:56:25;3.10;;;0.93;;
31482;SDS011;18103;52.246;8.052;2023-01-08T13:04:10;11.70;;;1.53;;
31482;SDS011;18103;52.246;8.052;2023-01-08T13:06:37;6.17;;;1.33;;
31482;SDS011;18103;52.246;8.052;2023-01-08T13:09:17;11.47;;;2.50;;
31482;SDS011;18103;52.246;8.052;2023-01-08T13:11:50;11.50;;;1.37;;
31482;SDS011;18103;52.246;8.052;2023-01-08T13:14:16;7.33;;;2.00;;
31482;SDS011;18103;52.246;8.052;2023-01-08T13:16:43;11.17;;;3.50;;
31482;SDS011;18103;52.246;8.052;2023-01-08T13:19:24;2.83;;;1.17;;
31482;SDS011;18103;52.246;8.052;2023-01-08T13:21:54;5.77;;;1.20;;
31482;SDS011;18103;52.246;8.052;2023-01-08T13:26:54;3.33;;;1.70;;
31482;SDS011;18103;52.246;8.052;2023-01-08T13:29:37;6.07;;;1.10;;
31482;SDS011;18103;52.246;8.052;2023-01-08T13:35:26;5.10;;;1.77;;
31482;SDS011;18103;52.246;8.052;2023-01-08T13:38:11;7.40;;;1.30;;
31482;SDS011;18103;52.246;8.052;2023-01-08T13:48:23;3.53;;;0.90;;
31482;SDS011;18103;52.246;8.052;2023-01-08T13:50:50;4.13;;;0.93;;
31482;SDS011;18103;52.246;8.052;2023-01-08T13:53:16;9.93;;;1.13;;
31482;SDS011;18103;52.246;8.052;2023-01-08T13:55:56;2.27;;;1.10;;
31482;SDS011;18103;52.246;8.052;2023-01-08T13:58:34;4.87;;;1.40;;
31482;SDS011;18103;52.246;8.052;2023-01-08T14:01:04;2.83;;;0.90;;
31482;SDS011;18103;52.246;8.052;2023-01-08T14:03:32;10.40;;;1.27;;
31482;SDS011;18103;52.246;8.052;2023-01-08T14:06:06;5.33;;;0.97;;
31482;SDS011;18103;52.246;8.052;2023-01-08T14:08:53;6.63;;;1.10;;
31482;SDS011;18103;52.246;8.052;2023-01-08T14:11:54;1.57;;;0.80;;
31482;SDS011;18103;52.246;8.052;2023-01-08T14:14:15;5.40;;;0.70;;
31482;SDS011;18103;52.246;8.052;2023-01-08T14:16:42;0.10;;;0.10;;
31482;SDS011;18103;52.246;8.052;2023-01-08T14:19:10;0.67;;;0.63;;
31482;SDS011;18103;52.246;8.052;2023-01-08T14:21:45;0.40;;;0.40;;
31482;SDS011;18103;52.246;8.052;2023-01-08T14:24:14;0.20;;;0.20;;
31482;SDS011;18103;52.246;8.052;2023-01-08T14:26:41;0.27;;;0.27;;
31482;SDS011;18103;52.246;8.052;2023-01-08T14:29:11;0.10;;;0.10;;
31482;SDS011;18103;52.246;8.052;2023-01-08T14:31:44;0.10;;;0.10;;
31482;SDS011;18103;52.246;8.052;2023-01-08T14:34:11;0.10;;;0.10;;
31482;SDS011;18103;52.246;8.052;2023-01-08T14:36:39;0.10;;;0.10;;
31482;SDS011;18103;52.246;8.052;2023-01-08T14:39:10;0.10;;;0.10;;
31482;SDS011;18103;52.246;8.052;2023-01-08T14:41:36;0.00;;;0.00;;
31482;SDS011;18103;52.246;8.052;2023-01-08T14:44:24;1.90;;;0.67;;
31482;SDS011;18103;52.246;8.052;2023-01-08T14:46:50;0.10;;;0.10;;
31482;SDS011;18103;52.246;8.052;2023-01-08T14:49:19;0.37;;;0.37;;
31482;SDS011;18103;52.246;8.052;2023-01-08T14:51:48;0.10;;;0.10;;
31482;SDS011;18103;52.246;8.052;2023-01-08T14:54:16;0.10;;;0.10;;
31482;SDS011;18103;52.246;8.052;2023-01-08T14:56:48;0.10;;;0.10;;
31482;SDS011;18103;52.246;8.052;2023-01-08T14:59:18;0.10;;;0.10;;
31482;SDS011;18103;52.246;8.052;2023-01-08T15:01:52;0.10;;;0.10;;
31482;SDS011;18103;52.246;8.052;2023-01-08T15:04:20;0.10;;;0.10;;
31482;SDS011;18103;52.246;8.052;2023-01-08T15:06:47;0.10;;;0.10;;
31482;SDS011;18103;52.246;8.052;2023-01-08T15:09:35;1.83;;;0.57;;
31482;SDS011;18103;52.246;8.052;2023-01-08T15:12:04;0.10;;;0.10;;
31482;SDS011;18103;52.246;8.052;2023-01-08T15:14:31;0.10;;;0.10;;
31482;SDS011;18103;52.246;8.052;2023-01-08T15:17:07;5.40;;;0.30;;
31482;SDS011;18103;52.246;8.052;2023-01-08T15:19:44;0.10;;;0.10;;
31482;SDS011;18103;52.246;8.052;2023-01-08T15:22:23;0.63;;;0.63;;
31482;SDS011;18103;52.246;8.052;2023-01-08T15:25:00;0.87;;;0.30;;
31482;SDS011;18103;52.246;8.052;2023-01-08T15:27:28;0.83;;;0.50;;
31482;SDS011;18103;52.246;8.052;2023-01-08T15:30:00;0.10;;;0.10;;
31482;SDS011;18103;52.246;8.052;2023-01-08T15:32:28;2.97;;;1.33;;
31482;SDS011;18103;52.246;8.052;2023-01-08T15:34:56;0.20;;;0.20;;
31482;SDS011;18103;52.246;8.052;2023-01-08T15:37:22;0.73;;;0.60;;
31482;SDS011;18103;52.246;8.052;2023-01-08T15:39:47;0.20;;;0.10;;
31482;SDS011;18103;52.246;8.052;2023-01-08T15:42:29;0.20;;;0.20;;
31482;SDS011;18103;52.246;8.052;2023-01-08T15:45:36;0.20;;;0.20;;
31482;SDS011;18103;52.246;8.052;2023-01-08T15:48:02;0.20;;;0.20;;
31482;SDS011;18103;52.246;8.052;2023-01-08T15:50:28;2.80;;;0.43;;
31482;SDS011;18103;52.246;8.052;2023-01-08T15:53:00;0.97;;;0.40;;
31482;SDS011;18103;52.246;8.052;2023-01-08T15:55:26;0.10;;;0.10;;
31482;SDS011;18103;52.246;8.052;2023-01-08T15:57:52;0.93;;;0.33;;
31482;SDS011;18103;52.246;8.052;2023-01-08T16:00:19;0.87;;;0.60;;
31482;SDS011;18103;52.246;8.052;2023-01-08T16:02:47;5.73;;;0.87;;
31482;SDS011;18103;52.246;8.052;2023-01-08T16:05:16;1.73;;;0.40;;
31482;SDS011;18103;52.246;8.052;2023-01-08T16:07:45;0.83;;;0.83;;
31482;SDS011;18103;52.246;8.052;2023-01-08T16:10:11;0.23;;;0.23;;
31482;SDS011;18103;52.246;8.052;2023-01-08T16:12:38;1.63;;;1.00;;
31482;SDS011;18103;52.246;8.052;2023-01-08T16:15:03;0.73;;;0.50;;
31482;SDS011;18103;52.246;8.052;2023-01-08T16:17:32;0.27;;;0.27;;
31482;SDS011;18103;52.246;8.052;2023-01-08T16:19:59;1.00;;;0.90;;
31482;SDS011;18103;52.246;8.052;2023-01-08T16:22:24;1.23;;;0.50;;
31482;SDS011;18103;52.246;8.052;2023-01-08T16:24:50;1.17;;;0.33;;
31482;SDS011;18103;52.246;8.052;2023-01-08T16:27:15;0.73;;;0.40;;